createdAt,value
2019-02-09T00:01:30.543Z,9.21
2019-02-09T00:04:20.171Z,9.22
2019-02-09T00:07:09.994Z,9.20
2019-02-09T00:09:59.422Z,9.17
2019-02-09T00:12:49.183Z,9.19
2019-02-09T00:15:39.243Z,9.15
2019-02-09T00:18:29.186Z,9.12
2019-02-09T00:21:19.292Z,9.11
2019-02-09T00:24:09.297Z,9.11
2019-02-09T00:26:59.515Z,9.06
2019-02-09T00:29:49.045Z,9.06
2019-02-09T00:32:38.937Z,9.06
2019-02-09T00:35:28.998Z,9.00
2019-02-09T00:38:18.420Z,9.06
2019-02-09T00:41:08.208Z,9.02
2019-02-09T00:43:58.144Z,9.05
2019-02-09T00:46:47.638Z,9.08
2019-02-09T00:49:37.603Z,9.09
2019-02-09T00:52:27.241Z,9.08
2019-02-09T00:55:17.208Z,9.05
2019-02-09T00:58:07.082Z,9.06
2019-02-09T01:00:56.924Z,9.03
2019-02-09T01:03:46.713Z,9.04
2019-02-09T01:06:37.139Z,9.10
2019-02-09T01:09:27.202Z,9.15
2019-02-09T01:12:17.088Z,9.13
2019-02-09T01:15:11.212Z,9.03
2019-02-09T01:18:00.843Z,9.14
2019-02-09T01:20:50.900Z,9.17
2019-02-09T01:23:40.967Z,9.30
2019-02-09T01:26:31.092Z,9.36
2019-02-09T01:29:20.983Z,9.33
2019-02-09T01:32:11.171Z,9.44
2019-02-09T01:35:01.152Z,9.48
2019-02-09T01:37:52.687Z,9.43
2019-02-09T01:40:42.742Z,9.47
2019-02-09T01:43:32.942Z,9.53
2019-02-09T01:46:23.086Z,9.58
2019-02-09T01:49:13.226Z,9.65
2019-02-09T01:52:03.080Z,9.69
2019-02-09T01:54:53.063Z,9.70
2019-02-09T01:57:43.067Z,9.73
2019-02-09T02:00:34.719Z,9.70
2019-02-09T02:03:24.656Z,9.69
2019-02-09T02:06:14.931Z,9.70
2019-02-09T02:09:08.254Z,9.62
2019-02-09T02:11:58.343Z,9.66
2019-02-09T02:14:48.159Z,9.69
2019-02-09T02:17:38.056Z,9.75
2019-02-09T02:20:29.664Z,9.70
2019-02-09T02:23:19.658Z,9.62
2019-02-09T02:26:09.614Z,9.65
2019-02-09T02:28:59.770Z,9.66
2019-02-09T02:31:50.181Z,9.54
2019-02-09T02:34:39.933Z,9.54
2019-02-09T02:37:30.157Z,9.54
2019-02-09T02:40:21.797Z,9.51
2019-02-09T02:43:11.848Z,9.42
2019-02-09T02:46:02.134Z,9.35
2019-02-09T02:48:52.222Z,9.29
2019-02-09T02:51:41.978Z,9.26
2019-02-09T02:54:32.062Z,9.20
2019-02-09T02:57:21.914Z,9.13
2019-02-09T03:00:18.210Z,9.08
2019-02-09T03:03:08.044Z,9.12
2019-02-09T03:05:57.662Z,9.14
2019-02-09T03:08:47.471Z,9.09
2019-02-09T03:11:37.466Z,9.15
2019-02-09T03:14:28.085Z,9.16
2019-02-09T03:17:17.534Z,9.13
2019-02-09T03:20:10.523Z,9.22
2019-02-09T03:22:59.995Z,9.12
2019-02-09T03:25:50.467Z,9.15
2019-02-09T03:28:40.493Z,9.20
2019-02-09T03:31:30.974Z,9.19
2019-02-09T03:34:20.988Z,9.20
2019-02-09T03:37:10.851Z,9.22
2019-02-09T03:40:00.479Z,9.19
2019-02-09T03:42:51.068Z,9.14
2019-02-09T03:45:41.340Z,9.20
2019-02-09T03:48:31.218Z,9.17
2019-02-09T03:51:20.942Z,9.20
2019-02-09T03:54:10.564Z,9.25
2019-02-09T03:57:00.184Z,9.27
2019-02-09T03:59:50.217Z,9.25
2019-02-09T04:02:40.119Z,9.28
2019-02-09T04:05:30.694Z,9.19
2019-02-09T04:08:21.627Z,9.30
2019-02-09T04:11:11.299Z,9.24
2019-02-09T04:14:01.096Z,9.33
2019-02-09T04:16:50.843Z,9.33
2019-02-09T04:19:40.627Z,9.38
2019-02-09T04:22:30.747Z,9.41
2019-02-09T04:25:21.664Z,9.43
2019-02-09T04:28:11.237Z,9.36
2019-02-09T04:31:05.827Z,9.41
2019-02-09T04:33:53.844Z,9.39
2019-02-09T04:36:43.824Z,9.41
2019-02-09T04:39:33.928Z,9.47
2019-02-09T04:42:24.083Z,9.47
2019-02-09T04:45:14.833Z,9.48
2019-02-09T04:48:04.575Z,9.48
2019-02-09T04:50:54.664Z,9.52
2019-02-09T04:53:44.823Z,9.55
2019-02-09T04:56:34.737Z,9.61
2019-02-09T04:59:24.412Z,9.69
2019-02-09T05:02:14.264Z,9.69
2019-02-09T05:05:04.747Z,9.78
2019-02-09T05:07:55.285Z,9.79
2019-02-09T05:10:45.317Z,9.79
2019-02-09T05:13:35.104Z,9.83
2019-02-09T05:16:25.165Z,9.86
2019-02-09T05:19:14.972Z,9.81
2019-02-09T05:22:05.354Z,9.85
2019-02-09T05:24:55.079Z,9.95
2019-02-09T05:27:45.090Z,10.01
2019-02-09T05:30:34.895Z,10.06
2019-02-09T05:33:24.396Z,10.11
2019-02-09T05:36:14.376Z,10.11
2019-02-09T05:39:06.305Z,10.05
2019-02-09T05:41:56.325Z,10.06
2019-02-09T05:44:46.598Z,10.13
2019-02-09T05:47:36.568Z,10.13
2019-02-09T05:50:26.796Z,10.09
2019-02-09T05:53:16.670Z,10.09
2019-02-09T05:56:07.468Z,10.09
2019-02-09T05:58:57.480Z,10.10
2019-02-09T06:01:47.284Z,10.12
2019-02-09T06:04:37.401Z,10.18
2019-02-09T06:07:27.314Z,10.20
2019-02-09T06:10:17.800Z,10.22
2019-02-09T06:13:07.680Z,10.19
2019-02-09T06:15:57.649Z,10.21
2019-02-09T06:18:48.815Z,10.18
2019-02-09T06:21:38.819Z,10.24
2019-02-09T06:24:28.679Z,10.22
2019-02-09T06:27:19.098Z,10.19
2019-02-09T06:30:12.767Z,10.22
2019-02-09T06:33:02.846Z,10.25
2019-02-09T06:35:52.588Z,10.27
2019-02-09T06:38:42.604Z,10.25
2019-02-09T06:41:32.015Z,10.16
2019-02-09T06:44:22.150Z,10.21
2019-02-09T06:47:12.177Z,10.21
2019-02-09T06:50:01.948Z,10.26
2019-02-09T06:52:51.888Z,10.20
2019-02-09T06:55:41.672Z,10.13
2019-02-09T06:58:32.492Z,10.14
2019-02-09T07:01:22.956Z,10.19
2019-02-09T07:04:12.585Z,10.19
2019-02-09T07:07:03.198Z,10.11
2019-02-09T07:09:53.101Z,10.09
2019-02-09T07:12:43.125Z,10.13
2019-02-09T07:15:33.540Z,10.12
2019-02-09T07:18:23.594Z,10.12
2019-02-09T07:21:13.458Z,9.96
2019-02-09T07:24:03.686Z,9.97
2019-02-09T07:26:53.924Z,9.89
2019-02-09T07:29:44.369Z,9.88
2019-02-09T07:32:33.742Z,9.94
2019-02-09T07:35:23.909Z,9.93
2019-02-09T07:38:13.278Z,9.96
2019-02-09T07:41:03.501Z,10.10
2019-02-09T07:43:53.085Z,10.07
2019-02-09T07:46:42.963Z,10.19
2019-02-09T07:49:32.402Z,10.32
2019-02-09T07:52:22.154Z,10.71
2019-02-09T07:55:14.211Z,11.23
2019-02-09T07:58:05.008Z,11.43
2019-02-09T08:00:54.902Z,11.44
2019-02-09T08:03:44.913Z,11.75
2019-02-09T08:06:34.895Z,11.72
2019-02-09T08:09:24.771Z,11.77
2019-02-09T08:12:14.725Z,11.72
2019-02-09T08:15:06.345Z,11.67
2019-02-09T08:17:56.270Z,11.47
2019-02-09T08:20:46.418Z,11.89
2019-02-09T08:23:37.984Z,12.52
2019-02-09T08:26:27.769Z,13.18
2019-02-09T08:29:17.628Z,13.71
2019-02-09T08:32:12.493Z,14.02
2019-02-09T08:34:59.401Z,13.83
2019-02-09T08:37:49.601Z,13.45
2019-02-09T08:40:40.204Z,13.36
2019-02-09T08:43:30.094Z,13.20
2019-02-09T08:46:19.658Z,13.19
2019-02-09T08:49:09.283Z,13.09
2019-02-09T08:51:59.110Z,13.19
2019-02-09T08:54:48.770Z,13.44
2019-02-09T08:57:39.073Z,13.75
2019-02-09T09:00:31.757Z,13.85
2019-02-09T09:03:21.788Z,14.08
2019-02-09T09:06:11.934Z,14.11
2019-02-09T09:09:01.945Z,14.13
2019-02-09T09:11:53.154Z,13.89
2019-02-09T09:14:43.093Z,13.80
2019-02-09T09:17:33.040Z,13.97
2019-02-09T09:20:27.137Z,14.35
2019-02-09T09:23:16.945Z,15.22
2019-02-09T09:26:07.346Z,16.31
2019-02-09T09:28:58.239Z,16.78
2019-02-09T09:31:48.128Z,16.76
2019-02-09T09:34:38.536Z,16.41
2019-02-09T09:37:28.715Z,15.91
2019-02-09T09:40:20.828Z,15.60
2019-02-09T09:43:10.690Z,15.26
2019-02-09T09:46:00.387Z,14.83
2019-02-09T09:48:50.348Z,14.62
2019-02-09T09:51:40.194Z,14.26
2019-02-09T09:54:30.003Z,14.01
2019-02-09T09:57:19.472Z,13.88
2019-02-09T10:00:12.436Z,13.67
2019-02-09T10:03:02.038Z,13.49
2019-02-09T10:05:51.898Z,13.52
2019-02-09T10:08:41.927Z,13.60
2019-02-09T10:11:33.008Z,14.41
2019-02-09T10:14:22.982Z,15.38
2019-02-09T10:17:13.374Z,15.79
2019-02-09T10:20:03.556Z,16.21
2019-02-09T10:22:53.929Z,16.57
2019-02-09T10:25:43.644Z,16.87
2019-02-09T10:28:33.458Z,17.02
2019-02-09T10:31:23.397Z,17.16
2019-02-09T10:34:13.450Z,16.93
2019-02-09T10:37:03.737Z,16.81
2019-02-09T10:39:53.520Z,16.62
2019-02-09T10:42:43.647Z,16.41
2019-02-09T10:45:33.928Z,16.41
2019-02-09T10:48:23.948Z,16.21
2019-02-09T10:51:14.021Z,15.97
2019-02-09T10:54:04.459Z,15.83
2019-02-09T10:56:54.662Z,16.12
2019-02-09T10:59:44.290Z,16.91
2019-02-09T11:02:33.901Z,17.38
2019-02-09T11:05:23.983Z,17.58
2019-02-09T11:08:14.154Z,17.70
2019-02-09T11:11:04.888Z,18.08
2019-02-09T11:13:54.722Z,18.24
2019-02-09T11:16:44.792Z,18.13
2019-02-09T11:19:34.652Z,17.74
2019-02-09T11:22:25.122Z,17.17
2019-02-09T11:25:16.270Z,16.71
2019-02-09T11:28:06.850Z,16.28
2019-02-09T11:30:56.761Z,15.83
2019-02-09T11:33:46.329Z,15.47
2019-02-09T11:36:36.056Z,15.36
2019-02-09T11:39:26.017Z,16.01
2019-02-09T11:42:15.631Z,17.43
2019-02-09T11:45:07.940Z,18.86
2019-02-09T11:47:58.074Z,20.28
2019-02-09T11:50:47.916Z,21.53
2019-02-09T11:53:40.687Z,22.44
2019-02-09T11:56:30.520Z,22.96
2019-02-09T11:59:21.366Z,22.95
2019-02-09T12:02:11.203Z,23.40
2019-02-09T12:05:01.035Z,23.49
2019-02-09T12:07:51.550Z,23.87
2019-02-09T12:10:41.186Z,24.06
2019-02-09T12:13:30.779Z,23.88
2019-02-09T12:16:21.379Z,23.81
2019-02-09T12:19:11.084Z,23.35
2019-02-09T12:22:00.790Z,23.02
2019-02-09T12:24:50.582Z,22.72
2019-02-09T12:27:40.064Z,22.11
2019-02-09T12:30:33.974Z,22.08
2019-02-09T12:33:23.742Z,21.96
2019-02-09T12:36:13.485Z,22.09
2019-02-09T12:39:03.803Z,21.78
2019-02-09T12:41:54.161Z,21.58
2019-02-09T12:44:44.007Z,21.03
2019-02-09T12:47:33.766Z,20.37
2019-02-09T12:50:24.930Z,19.63
2019-02-09T12:53:15.215Z,19.04
2019-02-09T12:56:05.577Z,18.62
2019-02-09T12:58:55.661Z,18.06
2019-02-09T13:01:45.518Z,17.69
2019-02-09T13:04:35.305Z,17.47
2019-02-09T13:07:25.374Z,17.24
2019-02-09T13:10:16.028Z,16.88
2019-02-09T13:13:06.349Z,16.60
2019-02-09T13:15:57.715Z,16.42
2019-02-09T13:18:47.215Z,16.36
2019-02-09T13:21:37.264Z,16.40
2019-02-09T13:24:26.867Z,16.23
2019-02-09T13:27:16.610Z,16.15
2019-02-09T13:30:11.117Z,16.03
2019-02-09T13:33:01.041Z,15.94
2019-02-09T13:35:51.254Z,15.82
2019-02-09T13:38:40.899Z,15.83
2019-02-09T13:41:31.139Z,15.84
2019-02-09T13:44:20.829Z,15.75
2019-02-09T13:47:10.803Z,15.71
2019-02-09T13:50:00.867Z,15.60
2019-02-09T13:52:50.891Z,15.50
2019-02-09T13:55:40.825Z,15.41
2019-02-09T13:58:30.620Z,15.23
2019-02-09T14:01:20.155Z,15.14
2019-02-09T14:04:09.765Z,15.04
2019-02-09T14:07:00.229Z,15.07
2019-02-09T14:09:49.875Z,14.91
2019-02-09T14:12:40.724Z,14.76
2019-02-09T14:15:32.368Z,14.72
2019-02-09T14:18:22.408Z,14.66
2019-02-09T14:21:11.801Z,14.67
2019-02-09T14:24:01.432Z,14.69
2019-02-09T14:26:52.291Z,14.70
2019-02-09T14:29:42.629Z,14.69
2019-02-09T14:32:32.694Z,14.69
2019-02-09T14:35:23.569Z,14.63
2019-02-09T14:38:13.797Z,14.57
2019-02-09T14:41:03.564Z,14.53
2019-02-09T14:43:53.598Z,14.44
2019-02-09T14:46:44.166Z,14.42
2019-02-09T14:49:34.219Z,14.46
2019-02-09T14:52:24.383Z,14.43
2019-02-09T14:55:21.847Z,14.39
2019-02-09T14:58:12.196Z,14.32
2019-02-09T15:01:01.982Z,14.29
2019-02-09T15:03:51.875Z,14.26
2019-02-09T15:06:41.763Z,14.24
2019-02-09T15:09:31.567Z,14.16
2019-02-09T15:12:21.763Z,14.17
2019-02-09T15:15:20.611Z,14.07
2019-02-09T15:18:11.627Z,14.04
2019-02-09T15:21:02.581Z,14.06
2019-02-09T15:23:52.390Z,14.08
2019-02-09T15:26:42.399Z,14.11
2019-02-09T15:29:32.804Z,14.15
2019-02-09T15:32:22.415Z,14.03
2019-02-09T15:35:13.923Z,13.98
2019-02-09T15:38:03.774Z,13.91
2019-02-09T15:40:54.038Z,13.81
2019-02-09T15:43:43.994Z,13.79
2019-02-09T15:46:33.781Z,13.78
2019-02-09T15:49:23.891Z,13.67
2019-02-09T15:52:14.220Z,13.61
2019-02-09T15:55:04.470Z,13.51
2019-02-09T15:57:54.749Z,13.43
2019-02-09T16:00:44.831Z,13.38
2019-02-09T16:03:34.702Z,13.30
2019-02-09T16:06:24.756Z,13.26
2019-02-09T16:09:14.552Z,13.19
2019-02-09T16:12:03.902Z,13.16
2019-02-09T16:14:53.616Z,13.14
2019-02-09T16:17:43.912Z,13.05
2019-02-09T16:20:33.597Z,12.98
2019-02-09T16:23:23.444Z,12.95
2019-02-09T16:26:12.837Z,12.92
2019-02-09T16:29:02.606Z,12.90
2019-02-09T16:31:52.703Z,12.89
2019-02-09T16:34:42.179Z,12.87
2019-02-09T16:37:31.734Z,12.75
2019-02-09T16:40:25.402Z,12.74
2019-02-09T16:43:15.397Z,12.63
2019-02-09T16:46:05.093Z,12.65
2019-02-09T16:48:55.002Z,12.62
2019-02-09T16:51:44.995Z,12.63
2019-02-09T16:54:35.113Z,12.53
2019-02-09T16:57:24.854Z,12.51
2019-02-09T17:00:37.997Z,12.48
2019-02-09T17:03:27.983Z,12.40
2019-02-09T17:06:17.593Z,12.34
2019-02-09T17:09:10.289Z,12.31
2019-02-09T17:11:59.869Z,12.32
2019-02-09T17:14:50.023Z,12.22
2019-02-09T17:17:40.246Z,12.16
2019-02-09T17:20:30.739Z,12.09
2019-02-09T17:23:21.260Z,12.01
2019-02-09T17:26:10.585Z,11.98
2019-02-09T17:29:00.095Z,11.96
2019-02-09T17:31:49.966Z,11.93
2019-02-09T17:34:41.132Z,11.86
2019-02-09T17:37:31.150Z,11.86
2019-02-09T17:40:27.758Z,11.85
2019-02-09T17:43:17.509Z,11.84
2019-02-09T17:46:16.672Z,11.83
2019-02-09T17:49:06.074Z,11.79
2019-02-09T17:51:55.901Z,11.78
2019-02-09T17:54:46.173Z,11.77
2019-02-09T17:57:36.060Z,11.76
2019-02-09T18:00:32.711Z,11.74
2019-02-09T18:03:22.766Z,11.76
2019-02-09T18:06:12.957Z,11.68
2019-02-09T18:09:02.718Z,11.68
2019-02-09T18:11:54.666Z,11.68
2019-02-09T18:14:45.891Z,11.66
2019-02-09T18:17:35.758Z,11.60
2019-02-09T18:20:25.607Z,11.56
2019-02-09T18:23:16.028Z,11.55
2019-02-09T18:26:06.909Z,11.56
2019-02-09T18:28:56.673Z,11.51
2019-02-09T18:31:46.554Z,11.51
2019-02-09T18:34:36.562Z,11.53
2019-02-09T18:37:26.533Z,11.46
2019-02-09T18:40:21.539Z,11.41
2019-02-09T18:43:10.959Z,11.39
2019-02-09T18:46:00.241Z,11.38
2019-02-09T18:48:49.652Z,11.34
2019-02-09T18:51:39.418Z,11.22
2019-02-09T18:54:28.969Z,11.21
2019-02-09T18:57:18.573Z,11.21
2019-02-09T19:00:10.666Z,11.20
2019-02-09T19:03:00.408Z,11.13
2019-02-09T19:05:50.270Z,11.06
2019-02-09T19:08:40.201Z,11.05
2019-02-09T19:11:30.027Z,10.96
2019-02-09T19:14:20.689Z,10.92
2019-02-09T19:17:11.504Z,10.90
2019-02-09T19:20:01.598Z,10.90
2019-02-09T19:22:51.198Z,10.92
2019-02-09T19:25:41.047Z,10.90
2019-02-09T19:28:31.132Z,10.82
2019-02-09T19:31:21.231Z,10.83
2019-02-09T19:34:11.184Z,10.81
2019-02-09T19:37:00.767Z,10.78
2019-02-09T19:39:50.820Z,10.84
2019-02-09T19:42:40.309Z,10.89
2019-02-09T19:45:32.443Z,10.86
2019-02-09T19:48:22.301Z,10.84
2019-02-09T19:51:11.674Z,10.90
2019-02-09T19:54:01.681Z,10.91
2019-02-09T19:56:51.799Z,10.90
2019-02-09T19:59:41.841Z,10.92
2019-02-09T20:02:31.652Z,10.89
2019-02-09T20:05:21.486Z,10.87
2019-02-09T20:08:13.006Z,10.86
2019-02-09T20:11:02.600Z,10.86
2019-02-09T20:13:52.205Z,10.86
2019-02-09T20:16:42.155Z,10.87
2019-02-09T20:19:32.186Z,10.86
2019-02-09T20:22:22.418Z,10.84
2019-02-09T20:25:16.982Z,10.84
2019-02-09T20:28:07.909Z,10.80
2019-02-09T20:30:57.955Z,10.80
2019-02-09T20:33:48.200Z,10.78
2019-02-09T20:36:37.969Z,10.72
2019-02-09T20:39:27.546Z,10.73
2019-02-09T20:42:17.694Z,10.68
2019-02-09T20:45:10.303Z,10.68
2019-02-09T20:47:59.977Z,10.68
2019-02-09T20:50:50.009Z,10.62
2019-02-09T20:53:39.411Z,10.54
2019-02-09T20:56:29.209Z,10.54
2019-02-09T20:59:19.066Z,10.54
2019-02-09T21:02:09.453Z,10.54
2019-02-09T21:05:00.839Z,10.56
2019-02-09T21:07:51.323Z,10.53
2019-02-09T21:10:41.199Z,10.52
2019-02-09T21:13:30.737Z,10.52
2019-02-09T21:16:20.668Z,10.52
2019-02-09T21:19:09.972Z,10.46
2019-02-09T21:22:00.271Z,10.43
2019-02-09T21:24:49.369Z,10.40
2019-02-09T21:27:39.512Z,10.41
2019-02-09T21:30:29.756Z,10.40
2019-02-09T21:33:19.682Z,10.39
2019-02-09T21:36:09.668Z,10.39
2019-02-09T21:38:59.359Z,10.42
2019-02-09T21:41:49.055Z,10.43
2019-02-09T21:44:39.329Z,10.45
2019-02-09T21:47:29.941Z,10.47
2019-02-09T21:50:26.257Z,10.45
2019-02-09T21:53:15.295Z,10.46
2019-02-09T21:56:04.812Z,10.47
2019-02-09T21:58:54.863Z,10.40
2019-02-09T22:01:45.065Z,10.41
2019-02-09T22:04:35.089Z,10.41
2019-02-09T22:07:25.127Z,10.40
2019-02-09T22:10:18.723Z,10.40
2019-02-09T22:13:09.010Z,10.42
2019-02-09T22:15:58.549Z,10.39
2019-02-09T22:18:48.602Z,10.36
2019-02-09T22:21:38.480Z,10.26
2019-02-09T22:24:28.460Z,10.23
2019-02-09T22:27:18.615Z,10.18
2019-02-09T22:30:11.095Z,10.13
2019-02-09T22:33:00.994Z,10.07
2019-02-09T22:35:50.182Z,10.07
2019-02-09T22:38:39.956Z,10.03
2019-02-09T22:41:29.394Z,10.07
2019-02-09T22:44:19.508Z,10.07
2019-02-09T22:47:12.569Z,10.08
2019-02-09T22:50:02.674Z,10.06
2019-02-09T22:52:52.995Z,10.00
2019-02-09T22:55:43.445Z,9.94
2019-02-09T22:58:33.333Z,9.84
2019-02-09T23:01:45.190Z,9.84
2019-02-09T23:04:56.638Z,9.76
2019-02-09T23:07:46.705Z,9.76
2019-02-09T23:10:36.427Z,9.73
2019-02-09T23:13:26.954Z,9.67
2019-02-09T23:16:17.102Z,9.70
2019-02-09T23:19:07.501Z,9.67
2019-02-09T23:21:57.813Z,9.66
2019-02-09T23:24:48.102Z,9.63
2019-02-09T23:27:38.270Z,9.62
2019-02-09T23:30:28.646Z,9.59
2019-02-09T23:33:18.490Z,9.57
2019-02-09T23:36:15.995Z,9.57
2019-02-09T23:39:00.046Z,9.56
2019-02-09T23:41:50.117Z,9.53
2019-02-09T23:44:39.646Z,9.50
2019-02-09T23:47:29.792Z,9.51
2019-02-09T23:50:20.075Z,9.51
2019-02-09T23:53:13.367Z,9.52
2019-02-09T23:56:03.927Z,9.54
2019-02-09T23:58:53.741Z,9.57
